sensor_id;sensor_type;location;lat;lon;timestamp;P1;durP1;ratioP1;P2;durP2;ratioP2
21941;SDS011;11135;54.192;15.670;2023-11-19T00:02:33;23.40;;;11.82;;
21941;SDS011;11135;54.192;15.670;2023-11-19T00:05:59;26.63;;;14.25;;
21941;SDS011;11135;54.192;15.670;2023-11-19T00:09:27;22.08;;;11.00;;
21941;SDS011;11135;54.192;15.670;2023-11-19T00:12:52;27.15;;;14.43;;
21941;SDS011;11135;54.192;15.670;2023-11-19T00:16:22;19.13;;;11.57;;
21941;SDS011;11135;54.192;15.670;2023-11-19T00:19:48;22.23;;;12.10;;
21941;SDS011;11135;54.192;15.670;2023-11-19T00:23:14;25.13;;;12.65;;
21941;SDS011;11135;54.192;15.670;2023-11-19T00:26:40;20.42;;;11.07;;
21941;SDS011;11135;54.192;15.670;2023-11-19T00:30:06;19.00;;;10.25;;
21941;SDS011;11135;54.192;15.670;2023-11-19T00:33:36;21.00;;;11.38;;
21941;SDS011;11135;54.192;15.670;2023-11-19T00:37:05;20.73;;;11.52;;
21941;SDS011;11135;54.192;15.670;2023-11-19T00:40:31;20.88;;;11.30;;
21941;SDS011;11135;54.192;15.670;2023-11-19T00:43:57;18.13;;;11.18;;
21941;SDS011;11135;54.192;15.670;2023-11-19T00:47:23;17.85;;;9.85;;
21941;SDS011;11135;54.192;15.670;2023-11-19T00:50:51;20.67;;;10.35;;
21941;SDS011;11135;54.192;15.670;2023-11-19T00:54:17;17.45;;;9.38;;
21941;SDS011;11135;54.192;15.670;2023-11-19T00:57:43;23.83;;;12.30;;
21941;SDS011;11135;54.192;15.670;2023-11-19T01:01:09;22.08;;;10.15;;
21941;SDS011;11135;54.192;15.670;2023-11-19T01:04:37;20.88;;;10.98;;
21941;SDS011;11135;54.192;15.670;2023-11-19T01:08:06;23.45;;;11.93;;
21941;SDS011;11135;54.192;15.670;2023-11-19T01:11:31;22.33;;;13.32;;
21941;SDS011;11135;54.192;15.670;2023-11-19T01:14:57;17.63;;;9.88;;
21941;SDS011;11135;54.192;15.670;2023-11-19T01:18:24;24.05;;;12.13;;
21941;SDS011;11135;54.192;15.670;2023-11-19T01:21:49;21.85;;;12.43;;
21941;SDS011;11135;54.192;15.670;2023-11-19T01:25:21;24.20;;;12.65;;
21941;SDS011;11135;54.192;15.670;2023-11-19T01:28:47;20.45;;;10.80;;
21941;SDS011;11135;54.192;15.670;2023-11-19T01:32:15;22.92;;;12.63;;
21941;SDS011;11135;54.192;15.670;2023-11-19T01:35:40;19.90;;;11.25;;
21941;SDS011;11135;54.192;15.670;2023-11-19T01:39:07;20.25;;;10.52;;
21941;SDS011;11135;54.192;15.670;2023-11-19T01:42:38;20.20;;;10.65;;
21941;SDS011;11135;54.192;15.670;2023-11-19T01:46:05;20.38;;;9.43;;
21941;SDS011;11135;54.192;15.670;2023-11-19T01:49:32;17.25;;;10.27;;
21941;SDS011;11135;54.192;15.670;2023-11-19T01:52:58;17.77;;;8.55;;
21941;SDS011;11135;54.192;15.670;2023-11-19T01:56:24;13.20;;;7.85;;
21941;SDS011;11135;54.192;15.670;2023-11-19T01:59:55;17.88;;;8.13;;
21941;SDS011;11135;54.192;15.670;2023-11-19T02:03:21;14.60;;;8.32;;
21941;SDS011;11135;54.192;15.670;2023-11-19T02:06:48;14.07;;;7.47;;
21941;SDS011;11135;54.192;15.670;2023-11-19T02:10:16;16.58;;;8.60;;
21941;SDS011;11135;54.192;15.670;2023-11-19T02:13:47;16.92;;;7.90;;
21941;SDS011;11135;54.192;15.670;2023-11-19T02:20:59;13.05;;;7.88;;
21941;SDS011;11135;54.192;15.670;2023-11-19T02:24:24;13.75;;;8.13;;
21941;SDS011;11135;54.192;15.670;2023-11-19T02:27:54;17.38;;;9.15;;
21941;SDS011;11135;54.192;15.670;2023-11-19T02:31:22;13.40;;;7.30;;
21941;SDS011;11135;54.192;15.670;2023-11-19T02:34:50;15.70;;;7.75;;
21941;SDS011;11135;54.192;15.670;2023-11-19T02:38:28;18.92;;;9.55;;
21941;SDS011;11135;54.192;15.670;2023-11-19T02:41:55;17.65;;;10.00;;
21941;SDS011;11135;54.192;15.670;2023-11-19T02:45:23;18.30;;;11.50;;
21941;SDS011;11135;54.192;15.670;2023-11-19T02:48:50;16.85;;;9.23;;
21941;SDS011;11135;54.192;15.670;2023-11-19T02:52:16;19.13;;;10.55;;
21941;SDS011;11135;54.192;15.670;2023-11-19T02:55:42;20.55;;;10.77;;
21941;SDS011;11135;54.192;15.670;2023-11-19T02:59:12;22.27;;;10.88;;
21941;SDS011;11135;54.192;15.670;2023-11-19T03:02:52;22.95;;;9.95;;
21941;SDS011;11135;54.192;15.670;2023-11-19T03:06:32;20.17;;;11.02;;
21941;SDS011;11135;54.192;15.670;2023-11-19T03:09:58;19.27;;;11.43;;
21941;SDS011;11135;54.192;15.670;2023-11-19T03:13:27;19.10;;;9.40;;
21941;SDS011;11135;54.192;15.670;2023-11-19T03:16:53;22.38;;;10.85;;
21941;SDS011;11135;54.192;15.670;2023-11-19T03:20:21;18.42;;;11.77;;
21941;SDS011;11135;54.192;15.670;2023-11-19T03:23:50;18.73;;;9.55;;
21941;SDS011;11135;54.192;15.670;2023-11-19T03:27:15;16.48;;;8.88;;
21941;SDS011;11135;54.192;15.670;2023-11-19T03:30:41;19.98;;;10.73;;
21941;SDS011;11135;54.192;15.670;2023-11-19T03:34:07;12.82;;;7.93;;
21941;SDS011;11135;54.192;15.670;2023-11-19T03:37:35;14.65;;;8.48;;
21941;SDS011;11135;54.192;15.670;2023-11-19T03:41:02;17.35;;;8.32;;
21941;SDS011;11135;54.192;15.670;2023-11-19T03:44:35;11.80;;;7.28;;
21941;SDS011;11135;54.192;15.670;2023-11-19T03:48:00;11.50;;;6.95;;
21941;SDS011;11135;54.192;15.670;2023-11-19T03:51:27;13.23;;;7.13;;
21941;SDS011;11135;54.192;15.670;2023-11-19T03:54:55;15.32;;;8.63;;
21941;SDS011;11135;54.192;15.670;2023-11-19T03:58:31;14.93;;;9.07;;
21941;SDS011;11135;54.192;15.670;2023-11-19T04:01:59;12.00;;;6.68;;
21941;SDS011;11135;54.192;15.670;2023-11-19T04:05:25;12.23;;;7.30;;
21941;SDS011;11135;54.192;15.670;2023-11-19T04:08:51;13.27;;;7.18;;
21941;SDS011;11135;54.192;15.670;2023-11-19T04:12:19;15.13;;;8.93;;
21941;SDS011;11135;54.192;15.670;2023-11-19T04:15:45;16.30;;;8.80;;
21941;SDS011;11135;54.192;15.670;2023-11-19T04:19:12;10.82;;;6.70;;
21941;SDS011;11135;54.192;15.670;2023-11-19T04:22:37;14.18;;;8.77;;
21941;SDS011;11135;54.192;15.670;2023-11-19T04:26:04;16.80;;;8.25;;
21941;SDS011;11135;54.192;15.670;2023-11-19T04:29:35;13.73;;;8.15;;
21941;SDS011;11135;54.192;15.670;2023-11-19T04:33:01;14.30;;;8.30;;
21941;SDS011;11135;54.192;15.670;2023-11-19T04:36:30;13.02;;;6.95;;
21941;SDS011;11135;54.192;15.670;2023-11-19T04:39:57;14.98;;;8.23;;
21941;SDS011;11135;54.192;15.670;2023-11-19T04:43:22;13.00;;;7.57;;
21941;SDS011;11135;54.192;15.670;2023-11-19T04:46:51;12.77;;;7.03;;
21941;SDS011;11135;54.192;15.670;2023-11-19T04:50:16;14.05;;;7.28;;
21941;SDS011;11135;54.192;15.670;2023-11-19T04:53:44;12.18;;;7.35;;
21941;SDS011;11135;54.192;15.670;2023-11-19T04:57:10;12.45;;;7.45;;
21941;SDS011;11135;54.192;15.670;2023-11-19T05:00:37;15.52;;;7.65;;
21941;SDS011;11135;54.192;15.670;2023-11-19T05:04:07;14.13;;;7.90;;
21941;SDS011;11135;54.192;15.670;2023-11-19T05:07:33;13.10;;;7.68;;
21941;SDS011;11135;54.192;15.670;2023-11-19T05:11:00;11.57;;;6.47;;
21941;SDS011;11135;54.192;15.670;2023-11-19T05:14:27;10.32;;;7.45;;
21941;SDS011;11135;54.192;15.670;2023-11-19T05:17:52;12.00;;;7.70;;
21941;SDS011;11135;54.192;15.670;2023-11-19T05:21:20;12.00;;;6.72;;
21941;SDS011;11135;54.192;15.670;2023-11-19T05:24:48;13.93;;;8.13;;
21941;SDS011;11135;54.192;15.670;2023-11-19T05:28:13;10.90;;;6.63;;
21941;SDS011;11135;54.192;15.670;2023-11-19T05:31:39;11.77;;;6.70;;
21941;SDS011;11135;54.192;15.670;2023-11-19T05:35:07;13.57;;;7.22;;
21941;SDS011;11135;54.192;15.670;2023-11-19T05:38:36;12.45;;;7.40;;
21941;SDS011;11135;54.192;15.670;2023-11-19T05:42:02;12.57;;;6.82;;
21941;SDS011;11135;54.192;15.670;2023-11-19T05:45:27;9.45;;;5.45;;
21941;SDS011;11135;54.192;15.670;2023-11-19T05:48:54;12.00;;;6.82;;
21941;SDS011;11135;54.192;15.670;2023-11-19T05:52:19;11.45;;;5.88;;
21941;SDS011;11135;54.192;15.670;2023-11-19T05:55:48;15.00;;;7.30;;
21941;SDS011;11135;54.192;15.670;2023-11-19T05:59:17;15.60;;;7.60;;
21941;SDS011;11135;54.192;15.670;2023-11-19T06:02:50;16.97;;;9.03;;
21941;SDS011;11135;54.192;15.670;2023-11-19T06:06:15;16.92;;;8.60;;
21941;SDS011;11135;54.192;15.670;2023-11-19T06:09:41;14.65;;;6.93;;
21941;SDS011;11135;54.192;15.670;2023-11-19T06:13:09;10.02;;;6.47;;
21941;SDS011;11135;54.192;15.670;2023-11-19T06:16:37;12.13;;;7.43;;
21941;SDS011;11135;54.192;15.670;2023-11-19T06:20:04;15.15;;;6.43;;
21941;SDS011;11135;54.192;15.670;2023-11-19T06:23:30;11.20;;;6.50;;
21941;SDS011;11135;54.192;15.670;2023-11-19T06:26:56;13.27;;;6.20;;
21941;SDS011;11135;54.192;15.670;2023-11-19T06:30:25;13.30;;;7.82;;
21941;SDS011;11135;54.192;15.670;2023-11-19T06:33:52;12.27;;;7.50;;
21941;SDS011;11135;54.192;15.670;2023-11-19T06:37:19;14.82;;;7.63;;
21941;SDS011;11135;54.192;15.670;2023-11-19T06:40:44;12.50;;;7.75;;
21941;SDS011;11135;54.192;15.670;2023-11-19T06:44:15;15.18;;;8.63;;
21941;SDS011;11135;54.192;15.670;2023-11-19T06:47:43;14.70;;;8.13;;
21941;SDS011;11135;54.192;15.670;2023-11-19T06:51:09;16.15;;;8.57;;
21941;SDS011;11135;54.192;15.670;2023-11-19T06:54:34;14.45;;;7.03;;
21941;SDS011;11135;54.192;15.670;2023-11-19T06:58:01;12.30;;;6.75;;
21941;SDS011;11135;54.192;15.670;2023-11-19T07:01:26;13.82;;;7.53;;
21941;SDS011;11135;54.192;15.670;2023-11-19T07:04:55;15.85;;;9.43;;
21941;SDS011;11135;54.192;15.670;2023-11-19T07:08:22;16.55;;;7.75;;
21941;SDS011;11135;54.192;15.670;2023-11-19T07:11:52;11.95;;;7.25;;
21941;SDS011;11135;54.192;15.670;2023-11-19T07:15:18;16.63;;;8.32;;
21941;SDS011;11135;54.192;15.670;2023-11-19T07:18:45;13.35;;;6.75;;
21941;SDS011;11135;54.192;15.670;2023-11-19T07:22:15;17.05;;;9.23;;
21941;SDS011;11135;54.192;15.670;2023-11-19T07:25:42;14.98;;;6.72;;
21941;SDS011;11135;54.192;15.670;2023-11-19T07:29:09;15.23;;;8.85;;
21941;SDS011;11135;54.192;15.670;2023-11-19T07:32:34;16.60;;;8.82;;
21941;SDS011;11135;54.192;15.670;2023-11-19T07:36:01;15.40;;;9.35;;
21941;SDS011;11135;54.192;15.670;2023-11-19T07:39:30;18.50;;;9.65;;
21941;SDS011;11135;54.192;15.670;2023-11-19T07:42:56;16.23;;;9.10;;
21941;SDS011;11135;54.192;15.670;2023-11-19T07:46:22;14.30;;;8.52;;
21941;SDS011;11135;54.192;15.670;2023-11-19T07:49:48;21.35;;;10.77;;
21941;SDS011;11135;54.192;15.670;2023-11-19T07:53:14;15.48;;;9.15;;
21941;SDS011;11135;54.192;15.670;2023-11-19T07:56:42;18.98;;;10.32;;
21941;SDS011;11135;54.192;15.670;2023-11-19T08:00:08;17.65;;;10.73;;
21941;SDS011;11135;54.192;15.670;2023-11-19T08:03:38;15.93;;;8.23;;
21941;SDS011;11135;54.192;15.670;2023-11-19T08:07:22;16.83;;;9.35;;
21941;SDS011;11135;54.192;15.670;2023-11-19T08:10:47;19.02;;;10.25;;
21941;SDS011;11135;54.192;15.670;2023-11-19T08:14:17;22.95;;;12.20;;
21941;SDS011;11135;54.192;15.670;2023-11-19T08:17:42;20.92;;;11.13;;
21941;SDS011;11135;54.192;15.670;2023-11-19T08:21:08;13.48;;;8.55;;
21941;SDS011;11135;54.192;15.670;2023-11-19T08:24:33;22.17;;;11.48;;
21941;SDS011;11135;54.192;15.670;2023-11-19T08:27:59;19.98;;;10.57;;
21941;SDS011;11135;54.192;15.670;2023-11-19T08:31:35;15.93;;;9.27;;
21941;SDS011;11135;54.192;15.670;2023-11-19T08:35:00;19.85;;;10.13;;
21941;SDS011;11135;54.192;15.670;2023-11-19T08:38:26;18.17;;;9.52;;
21941;SDS011;11135;54.192;15.670;2023-11-19T08:41:53;19.15;;;11.68;;
21941;SDS011;11135;54.192;15.670;2023-11-19T08:45:19;19.58;;;12.05;;
21941;SDS011;11135;54.192;15.670;2023-11-19T08:48:47;24.05;;;13.18;;
21941;SDS011;11135;54.192;15.670;2023-11-19T08:52:13;21.80;;;12.23;;
21941;SDS011;11135;54.192;15.670;2023-11-19T08:55:40;21.10;;;10.77;;
21941;SDS011;11135;54.192;15.670;2023-11-19T08:59:09;24.58;;;11.93;;
21941;SDS011;11135;54.192;15.670;2023-11-19T09:02:38;25.40;;;11.98;;
21941;SDS011;11135;54.192;15.670;2023-11-19T09:06:09;24.58;;;11.43;;
21941;SDS011;11135;54.192;15.670;2023-11-19T09:09:35;25.05;;;12.02;;
21941;SDS011;11135;54.192;15.670;2023-11-19T09:13:01;23.88;;;11.70;;
21941;SDS011;11135;54.192;15.670;2023-11-19T09:16:26;16.42;;;9.05;;
21941;SDS011;11135;54.192;15.670;2023-11-19T09:19:52;16.77;;;9.57;;
21941;SDS011;11135;54.192;15.670;2023-11-19T09:23:20;25.50;;;12.45;;
21941;SDS011;11135;54.192;15.670;2023-11-19T09:26:47;27.45;;;13.38;;
21941;SDS011;11135;54.192;15.670;2023-11-19T09:30:13;21.00;;;12.70;;
21941;SDS011;11135;54.192;15.670;2023-11-19T09:33:39;29.65;;;14.73;;
21941;SDS011;11135;54.192;15.670;2023-11-19T09:37:05;29.35;;;13.55;;
21941;SDS011;11135;54.192;15.670;2023-11-19T09:40:36;27.75;;;12.27;;
21941;SDS011;11135;54.192;15.670;2023-11-19T09:44:02;24.40;;;12.85;;
21941;SDS011;11135;54.192;15.670;2023-11-19T09:47:27;21.80;;;12.43;;
21941;SDS011;11135;54.192;15.670;2023-11-19T09:50:53;28.35;;;13.35;;
21941;SDS011;11135;54.192;15.670;2023-11-19T09:54:19;19.83;;;10.10;;
21941;SDS011;11135;54.192;15.670;2023-11-19T09:57:47;29.33;;;14.00;;
21941;SDS011;11135;54.192;15.670;2023-11-19T10:01:13;23.52;;;11.57;;
21941;SDS011;11135;54.192;15.670;2023-11-19T10:04:50;31.27;;;14.77;;
21941;SDS011;11135;54.192;15.670;2023-11-19T10:08:16;22.13;;;10.95;;
21941;SDS011;11135;54.192;15.670;2023-11-19T10:11:42;18.40;;;11.25;;
21941;SDS011;11135;54.192;15.670;2023-11-19T10:15:11;23.30;;;11.40;;
21941;SDS011;11135;54.192;15.670;2023-11-19T10:18:45;27.65;;;12.27;;
21941;SDS011;11135;54.192;15.670;2023-11-19T10:22:13;29.02;;;14.45;;
21941;SDS011;11135;54.192;15.670;2023-11-19T10:25:40;31.20;;;13.77;;
21941;SDS011;11135;54.192;15.670;2023-11-19T10:29:06;29.17;;;15.27;;
21941;SDS011;11135;54.192;15.670;2023-11-19T10:32:34;23.08;;;12.52;;
21941;SDS011;11135;54.192;15.670;2023-11-19T10:36:00;26.55;;;13.32;;
21941;SDS011;11135;54.192;15.670;2023-11-19T10:39:29;27.63;;;13.13;;
21941;SDS011;11135;54.192;15.670;2023-11-19T10:43:01;26.92;;;12.75;;
21941;SDS011;11135;54.192;15.670;2023-11-19T10:46:36;26.90;;;12.68;;
21941;SDS011;11135;54.192;15.670;2023-11-19T10:50:05;19.40;;;10.65;;
21941;SDS011;11135;54.192;15.670;2023-11-19T10:53:31;29.17;;;13.95;;
21941;SDS011;11135;54.192;15.670;2023-11-19T10:56:58;28.02;;;12.70;;
21941;SDS011;11135;54.192;15.670;2023-11-19T11:00:24;21.45;;;11.48;;
21941;SDS011;11135;54.192;15.670;2023-11-19T11:03:51;20.38;;;10.55;;
21941;SDS011;11135;54.192;15.670;2023-11-19T11:07:21;26.20;;;12.35;;
21941;SDS011;11135;54.192;15.670;2023-11-19T11:11:01;22.05;;;12.02;;
21941;SDS011;11135;54.192;15.670;2023-11-19T11:14:27;22.33;;;12.18;;
21941;SDS011;11135;54.192;15.670;2023-11-19T11:17:53;23.98;;;11.15;;
21941;SDS011;11135;54.192;15.670;2023-11-19T11:21:21;20.70;;;10.85;;
21941;SDS011;11135;54.192;15.670;2023-11-19T11:24:57;20.55;;;11.82;;
21941;SDS011;11135;54.192;15.670;2023-11-19T11:28:27;17.23;;;9.43;;
21941;SDS011;11135;54.192;15.670;2023-11-19T11:31:56;24.23;;;12.23;;
21941;SDS011;11135;54.192;15.670;2023-11-19T11:35:27;18.52;;;10.07;;
21941;SDS011;11135;54.192;15.670;2023-11-19T11:38:56;15.98;;;9.27;;
21941;SDS011;11135;54.192;15.670;2023-11-19T11:42:35;12.43;;;7.72;;
21941;SDS011;11135;54.192;15.670;2023-11-19T11:46:01;19.60;;;9.98;;
21941;SDS011;11135;54.192;15.670;2023-11-19T11:49:28;17.50;;;8.80;;
21941;SDS011;11135;54.192;15.670;2023-11-19T11:56:36;12.13;;;7.03;;
21941;SDS011;11135;54.192;15.670;2023-11-19T12:00:05;16.33;;;9.70;;
21941;SDS011;11135;54.192;15.670;2023-11-19T12:03:37;16.35;;;9.18;;
21941;SDS011;11135;54.192;15.670;2023-11-19T12:07:03;17.92;;;10.40;;
21941;SDS011;11135;54.192;15.670;2023-11-19T12:10:29;18.67;;;10.25;;
21941;SDS011;11135;54.192;15.670;2023-11-19T12:13:56;16.42;;;8.75;;
21941;SDS011;11135;54.192;15.670;2023-11-19T12:17:40;12.93;;;7.13;;
21941;SDS011;11135;54.192;15.670;2023-11-19T12:21:07;15.55;;;8.70;;
21941;SDS011;11135;54.192;15.670;2023-11-19T12:24:33;19.60;;;10.30;;
21941;SDS011;11135;54.192;15.670;2023-11-19T12:27:58;20.95;;;10.55;;
21941;SDS011;11135;54.192;15.670;2023-11-19T12:31:27;13.32;;;7.35;;
21941;SDS011;11135;54.192;15.670;2023-11-19T12:34:56;16.33;;;8.38;;
21941;SDS011;11135;54.192;15.670;2023-11-19T12:38:22;15.23;;;8.95;;
21941;SDS011;11135;54.192;15.670;2023-11-19T12:41:51;15.13;;;7.97;;
21941;SDS011;11135;54.192;15.670;2023-11-19T12:45:17;14.02;;;9.05;;
21941;SDS011;11135;54.192;15.670;2023-11-19T12:48:44;16.30;;;8.20;;
21941;SDS011;11135;54.192;15.670;2023-11-19T12:52:15;14.48;;;8.30;;
21941;SDS011;11135;54.192;15.670;2023-11-19T12:55:41;13.55;;;7.97;;
21941;SDS011;11135;54.192;15.670;2023-11-19T12:59:11;56.95;;;11.20;;
21941;SDS011;11135;54.192;15.670;2023-11-19T13:02:47;15.35;;;8.02;;
21941;SDS011;11135;54.192;15.670;2023-11-19T13:06:15;15.25;;;7.55;;
21941;SDS011;11135;54.192;15.670;2023-11-19T13:09:46;15.27;;;7.03;;
21941;SDS011;11135;54.192;15.670;2023-11-19T13:13:13;14.55;;;7.50;;
21941;SDS011;11135;54.192;15.670;2023-11-19T13:16:38;13.65;;;7.90;;
21941;SDS011;11135;54.192;15.670;2023-11-19T13:20:05;18.25;;;9.35;;
21941;SDS011;11135;54.192;15.670;2023-11-19T13:23:32;19.25;;;10.13;;
21941;SDS011;11135;54.192;15.670;2023-11-19T13:27:00;19.05;;;8.82;;
21941;SDS011;11135;54.192;15.670;2023-11-19T13:30:26;17.40;;;8.75;;
21941;SDS011;11135;54.192;15.670;2023-11-19T13:33:52;20.10;;;9.73;;
21941;SDS011;11135;54.192;15.670;2023-11-19T13:37:17;12.77;;;7.40;;
21941;SDS011;11135;54.192;15.670;2023-11-19T13:40:43;15.10;;;7.72;;
21941;SDS011;11135;54.192;15.670;2023-11-19T13:44:11;13.85;;;7.53;;
21941;SDS011;11135;54.192;15.670;2023-11-19T13:47:37;16.30;;;7.90;;
21941;SDS011;11135;54.192;15.670;2023-11-19T13:51:03;16.38;;;8.23;;
21941;SDS011;11135;54.192;15.670;2023-11-19T13:54:29;14.95;;;7.55;;
21941;SDS011;11135;54.192;15.670;2023-11-19T13:57:55;16.63;;;8.77;;
21941;SDS011;11135;54.192;15.670;2023-11-19T14:01:23;12.80;;;6.90;;
21941;SDS011;11135;54.192;15.670;2023-11-19T14:04:50;12.77;;;7.65;;
21941;SDS011;11135;54.192;15.670;2023-11-19T14:08:16;16.23;;;8.75;;
21941;SDS011;11135;54.192;15.670;2023-11-19T14:11:47;15.85;;;8.40;;
21941;SDS011;11135;54.192;15.670;2023-11-19T14:15:14;12.57;;;6.70;;
21941;SDS011;11135;54.192;15.670;2023-11-19T14:18:42;14.48;;;7.28;;
21941;SDS011;11135;54.192;15.670;2023-11-19T14:22:08;14.75;;;8.45;;
21941;SDS011;11135;54.192;15.670;2023-11-19T14:25:33;12.77;;;7.28;;
21941;SDS011;11135;54.192;15.670;2023-11-19T14:28:59;16.38;;;8.65;;
21941;SDS011;11135;54.192;15.670;2023-11-19T14:32:25;17.25;;;8.60;;
21941;SDS011;11135;54.192;15.670;2023-11-19T14:35:53;16.80;;;9.70;;
21941;SDS011;11135;54.192;15.670;2023-11-19T14:39:19;15.98;;;8.40;;
21941;SDS011;11135;54.192;15.670;2023-11-19T14:42:44;14.68;;;7.88;;
21941;SDS011;11135;54.192;15.670;2023-11-19T14:46:10;15.10;;;8.70;;
21941;SDS011;11135;54.192;15.670;2023-11-19T14:49:36;16.42;;;8.27;;
21941;SDS011;11135;54.192;15.670;2023-11-19T14:53:04;13.40;;;7.18;;
21941;SDS011;11135;54.192;15.670;2023-11-19T14:56:30;12.50;;;8.00;;
21941;SDS011;11135;54.192;15.670;2023-11-19T14:59:55;16.15;;;8.50;;
21941;SDS011;11135;54.192;15.670;2023-11-19T15:03:21;14.18;;;7.65;;
21941;SDS011;11135;54.192;15.670;2023-11-19T15:06:47;11.88;;;7.18;;
21941;SDS011;11135;54.192;15.670;2023-11-19T15:10:16;17.52;;;9.68;;
21941;SDS011;11135;54.192;15.670;2023-11-19T15:13:41;17.38;;;9.45;;
21941;SDS011;11135;54.192;15.670;2023-11-19T15:17:07;16.90;;;7.72;;
21941;SDS011;11135;54.192;15.670;2023-11-19T15:20:33;13.38;;;7.55;;
21941;SDS011;11135;54.192;15.670;2023-11-19T15:23:59;15.52;;;8.57;;
21941;SDS011;11135;54.192;15.670;2023-11-19T15:27:29;16.08;;;8.77;;
21941;SDS011;11135;54.192;15.670;2023-11-19T15:30:55;15.30;;;7.53;;
21941;SDS011;11135;54.192;15.670;2023-11-19T15:34:20;14.75;;;7.63;;
21941;SDS011;11135;54.192;15.670;2023-11-19T15:37:46;15.63;;;8.85;;
21941;SDS011;11135;54.192;15.670;2023-11-19T15:41:11;15.30;;;7.38;;
21941;SDS011;11135;54.192;15.670;2023-11-19T15:44:40;9.32;;;5.18;;
21941;SDS011;11135;54.192;15.670;2023-11-19T15:48:05;15.13;;;8.85;;
21941;SDS011;11135;54.192;15.670;2023-11-19T15:51:31;12.65;;;7.93;;
21941;SDS011;11135;54.192;15.670;2023-11-19T15:54:57;12.85;;;7.65;;
21941;SDS011;11135;54.192;15.670;2023-11-19T15:58:23;15.77;;;7.65;;
21941;SDS011;11135;54.192;15.670;2023-11-19T16:01:51;12.77;;;6.68;;
21941;SDS011;11135;54.192;15.670;2023-11-19T16:05:17;15.98;;;8.45;;
21941;SDS011;11135;54.192;15.670;2023-11-19T16:08:42;12.35;;;6.90;;
21941;SDS011;11135;54.192;15.670;2023-11-19T16:12:08;10.15;;;6.53;;
21941;SDS011;11135;54.192;15.670;2023-11-19T16:15:33;13.80;;;7.10;;
21941;SDS011;11135;54.192;15.670;2023-11-19T16:19:02;13.38;;;7.72;;
21941;SDS011;11135;54.192;15.670;2023-11-19T16:22:28;12.52;;;6.60;;
21941;SDS011;11135;54.192;15.670;2023-11-19T16:25:56;12.48;;;7.03;;
21941;SDS011;11135;54.192;15.670;2023-11-19T16:29:22;14.77;;;7.15;;
21941;SDS011;11135;54.192;15.670;2023-11-19T16:32:49;14.13;;;7.93;;
21941;SDS011;11135;54.192;15.670;2023-11-19T16:36:18;12.10;;;6.45;;
21941;SDS011;11135;54.192;15.670;2023-11-19T16:39:45;15.70;;;8.05;;
21941;SDS011;11135;54.192;15.670;2023-11-19T16:43:10;12.55;;;7.18;;
21941;SDS011;11135;54.192;15.670;2023-11-19T16:46:36;12.45;;;6.72;;
21941;SDS011;11135;54.192;15.670;2023-11-19T16:50:02;13.55;;;7.38;;
21941;SDS011;11135;54.192;15.670;2023-11-19T16:53:33;11.93;;;6.53;;
21941;SDS011;11135;54.192;15.670;2023-11-19T16:56:58;15.57;;;7.93;;
21941;SDS011;11135;54.192;15.670;2023-11-19T17:00:25;11.98;;;7.03;;
21941;SDS011;11135;54.192;15.670;2023-11-19T17:03:50;10.90;;;5.95;;
21941;SDS011;11135;54.192;15.670;2023-11-19T17:07:17;13.02;;;7.32;;
21941;SDS011;11135;54.192;15.670;2023-11-19T17:10:46;12.75;;;7.13;;
21941;SDS011;11135;54.192;15.670;2023-11-19T17:14:12;10.68;;;6.28;;
21941;SDS011;11135;54.192;15.670;2023-11-19T17:17:38;9.88;;;5.53;;
21941;SDS011;11135;54.192;15.670;2023-11-19T17:21:04;12.63;;;6.68;;
21941;SDS011;11135;54.192;15.670;2023-11-19T17:24:30;13.07;;;7.70;;
21941;SDS011;11135;54.192;15.670;2023-11-19T17:27:58;13.52;;;6.50;;
21941;SDS011;11135;54.192;15.670;2023-11-19T17:31:24;11.18;;;6.57;;
21941;SDS011;11135;54.192;15.670;2023-11-19T17:34:51;12.60;;;7.10;;
21941;SDS011;11135;54.192;15.670;2023-11-19T17:38:16;13.63;;;7.55;;
21941;SDS011;11135;54.192;15.670;2023-11-19T17:41:46;11.05;;;6.35;;
21941;SDS011;11135;54.192;15.670;2023-11-19T17:45:14;8.90;;;4.50;;
21941;SDS011;11135;54.192;15.670;2023-11-19T17:48:40;13.70;;;6.97;;
21941;SDS011;11135;54.192;15.670;2023-11-19T17:52:06;14.93;;;7.75;;
21941;SDS011;11135;54.192;15.670;2023-11-19T17:55:32;13.85;;;7.50;;
21941;SDS011;11135;54.192;15.670;2023-11-19T17:58:58;13.65;;;7.32;;
21941;SDS011;11135;54.192;15.670;2023-11-19T18:02:26;12.82;;;7.43;;
21941;SDS011;11135;54.192;15.670;2023-11-19T18:05:55;12.15;;;6.95;;
21941;SDS011;11135;54.192;15.670;2023-11-19T18:09:20;16.10;;;7.80;;
21941;SDS011;11135;54.192;15.670;2023-11-19T18:12:49;13.73;;;7.57;;
21941;SDS011;11135;54.192;15.670;2023-11-19T18:16:17;13.13;;;7.53;;
21941;SDS011;11135;54.192;15.670;2023-11-19T18:19:45;12.85;;;6.82;;
21941;SDS011;11135;54.192;15.670;2023-11-19T18:23:11;11.52;;;6.75;;
21941;SDS011;11135;54.192;15.670;2023-11-19T18:26:37;12.70;;;7.38;;
21941;SDS011;11135;54.192;15.670;2023-11-19T18:30:09;13.23;;;7.63;;
21941;SDS011;11135;54.192;15.670;2023-11-19T18:33:36;16.33;;;7.20;;
21941;SDS011;11135;54.192;15.670;2023-11-19T18:37:17;8.43;;;4.05;;
21941;SDS011;11135;54.192;15.670;2023-11-19T18:40:49;11.43;;;6.45;;
21941;SDS011;11135;54.192;15.670;2023-11-19T18:44:15;12.10;;;6.75;;
21941;SDS011;11135;54.192;15.670;2023-11-19T18:47:54;15.52;;;8.18;;
21941;SDS011;11135;54.192;15.670;2023-11-19T18:51:44;13.40;;;7.90;;
21941;SDS011;11135;54.192;15.670;2023-11-19T18:55:24;12.93;;;7.47;;
21941;SDS011;11135;54.192;15.670;2023-11-19T18:58:52;12.82;;;6.03;;
21941;SDS011;11135;54.192;15.670;2023-11-19T19:02:24;14.82;;;7.70;;
21941;SDS011;11135;54.192;15.670;2023-11-19T19:05:58;11.52;;;6.30;;
21941;SDS011;11135;54.192;15.670;2023-11-19T19:09:37;13.27;;;6.97;;
21941;SDS011;11135;54.192;15.670;2023-11-19T19:13:06;11.88;;;6.32;;
21941;SDS011;11135;54.192;15.670;2023-11-19T19:16:50;12.32;;;7.55;;
21941;SDS011;11135;54.192;15.670;2023-11-19T19:20:19;12.23;;;5.82;;
21941;SDS011;11135;54.192;15.670;2023-11-19T19:24:03;13.15;;;6.85;;
21941;SDS011;11135;54.192;15.670;2023-11-19T19:27:53;12.15;;;5.85;;
21941;SDS011;11135;54.192;15.670;2023-11-19T19:31:42;11.68;;;5.10;;
21941;SDS011;11135;54.192;15.670;2023-11-19T19:35:07;14.57;;;7.63;;
21941;SDS011;11135;54.192;15.670;2023-11-19T19:38:33;11.23;;;6.18;;
21941;SDS011;11135;54.192;15.670;2023-11-19T19:41:59;12.68;;;7.50;;
21941;SDS011;11135;54.192;15.670;2023-11-19T19:45:26;9.90;;;5.65;;
21941;SDS011;11135;54.192;15.670;2023-11-19T19:48:56;11.00;;;6.40;;
21941;SDS011;11135;54.192;15.670;2023-11-19T19:52:22;11.98;;;6.47;;
21941;SDS011;11135;54.192;15.670;2023-11-19T19:55:50;13.52;;;6.40;;
21941;SDS011;11135;54.192;15.670;2023-11-19T19:59:17;14.52;;;7.05;;
21941;SDS011;11135;54.192;15.670;2023-11-19T20:02:43;14.80;;;6.35;;
21941;SDS011;11135;54.192;15.670;2023-11-19T20:06:12;12.02;;;6.80;;
21941;SDS011;11135;54.192;15.670;2023-11-19T20:09:38;17.10;;;7.70;;
21941;SDS011;11135;54.192;15.670;2023-11-19T20:13:04;13.90;;;7.38;;
21941;SDS011;11135;54.192;15.670;2023-11-19T20:16:32;14.75;;;7.30;;
21941;SDS011;11135;54.192;15.670;2023-11-19T20:19:57;12.48;;;6.65;;